Time;durP1;ratioP1;P1;durP2;ratioP2;P2;SDS_P1;SDS_P2;PMS_P1;PMS_P2;Temp;Humidity;BMP_temperature;BMP_pressure;BME280_temperature;BME280_humidity;BME280_pressure;Samples;Min_cycle;Max_cycle;Signal;HPM_P1;HPM_P2
2023/07/10 00:00:18;;;;;;;1.10;0.80;;;26.40;1.00;;;;;;5135743;27;20426;-57
2023/07/10 00:02:45;;;;;;;1.45;0.90;;;26.50;1.00;;;;;;5135748;27;20449;-57
2023/07/10 00:05:14;;;;;;;1.30;0.80;;;26.40;1.00;;;;;;5136017;27;20445;-57
2023/07/10 00:07:42;;;;;;;1.30;0.90;;;26.40;1.00;;;;;;5136105;27;20853;-57
2023/07/10 00:10:10;;;;;;;1.20;0.80;;;26.40;1.00;;;;;;5135458;27;20415;-58
2023/07/10 00:12:38;;;;;;;1.10;0.80;;;26.50;1.00;;;;;;5135248;28;20449;-57
2023/07/10 00:15:19;;;;;;;2.72;0.95;;;26.50;1.00;;;;;;5134859;27;20711;-53
2023/07/10 00:17:46;;;;;;;1.70;0.90;;;26.60;1.00;;;;;;5135783;27;20426;-57
2023/07/10 00:20:15;;;;;;;1.42;0.90;;;26.60;1.00;;;;;;5135416;28;20445;-58
2023/07/10 00:22:42;;;;;;;1.00;0.80;;;26.60;1.00;;;;;;5134783;28;20838;-58
2023/07/10 00:25:11;;;;;;;2.70;0.90;;;26.50;1.00;;;;;;5135754;28;20426;-58
2023/07/10 00:27:38;;;;;;;1.30;0.90;;;26.50;1.00;;;;;;5135771;28;20429;-58
2023/07/10 00:30:16;;;;;;;2.20;0.87;;;26.50;1.00;;;;;;5135509;28;20846;-55
2023/07/10 00:32:44;;;;;;;1.60;0.90;;;26.50;1.00;;;;;;5135188;28;20438;-56
2023/07/10 00:35:16;;;;;;;3.00;0.90;;;26.60;1.00;;;;;;5135385;28;20766;-55
2023/07/10 00:37:45;;;;;;;1.40;0.80;;;26.60;1.00;;;;;;5135952;28;20422;-55
2023/07/10 00:40:22;;;;;;;1.30;0.80;;;26.60;1.00;;;;;;5135994;28;20780;-56
2023/07/10 00:42:53;;;;;;;1.30;0.90;;;26.60;1.00;;;;;;5135509;28;20422;-56
2023/07/10 00:45:22;;;;;;;2.20;0.90;;;26.50;1.00;;;;;;5135719;28;20434;-53
2023/07/10 00:48:00;;;;;;;1.20;0.90;;;26.40;1.00;;;;;;5134542;28;20426;-56
2023/07/10 00:50:34;;;;;;;2.30;0.90;;;26.20;1.00;;;;;;5134180;28;20433;-56
2023/07/10 00:53:02;;;;;;;1.10;0.90;;;26.10;1.00;;;;;;5133699;28;20431;-56
2023/07/10 00:55:33;;;;;;;1.07;0.90;;;26.00;1.00;;;;;;5134069;28;20418;-56
2023/07/10 00:58:14;;;;;;;1.20;0.90;;;26.00;1.00;;;;;;5133725;28;20751;-56
2023/07/10 01:01:01;;;;;;;0.90;0.75;;;26.00;1.00;;;;;;5134282;28;20449;-57
2023/07/10 01:03:28;;;;;;;2.38;1.00;;;26.10;1.00;;;;;;5135371;28;20418;-56
2023/07/10 01:05:57;;;;;;;1.70;0.90;;;26.10;1.00;;;;;;5135118;28;20433;-55
2023/07/10 01:08:24;;;;;;;1.20;0.80;;;26.10;1.00;;;;;;5135134;28;20445;-56
2023/07/10 01:10:51;;;;;;;1.20;0.90;;;26.10;1.00;;;;;;5134473;28;20437;-57
2023/07/10 01:13:18;;;;;;;1.30;0.90;;;26.20;1.00;;;;;;5134680;28;20422;-57
2023/07/10 01:15:45;;;;;;;1.20;0.90;;;26.20;1.00;;;;;;5135071;28;20410;-56
2023/07/10 01:18:14;;;;;;;1.10;0.90;;;26.20;1.00;;;;;;5135561;28;20742;-57
2023/07/10 01:20:46;;;;;;;2.30;1.10;;;26.20;1.00;;;;;;5135033;27;20426;-57
2023/07/10 01:23:16;;;;;;;2.70;1.00;;;26.10;1.00;;;;;;5135477;28;20548;-57
2023/07/10 01:25:48;;;;;;;2.65;0.90;;;26.00;1.00;;;;;;5135280;27;20418;-56
2023/07/10 01:28:18;;;;;;;1.30;0.90;;;26.00;1.00;;;;;;5138839;27;20451;-56
2023/07/10 01:30:46;;;;;;;1.27;0.80;;;26.10;1.00;;;;;;5138638;27;20426;-56
2023/07/10 01:33:20;;;;;;;1.60;0.82;;;26.00;1.00;;;;;;5138869;27;20426;-56
2023/07/10 01:35:52;;;;;;;1.25;1.00;;;26.00;1.00;;;;;;5138492;27;20426;-55
2023/07/10 01:38:22;;;;;;;1.23;0.90;;;25.90;1.00;;;;;;5138465;27;20490;-55
2023/07/10 01:40:52;;;;;;;1.60;1.00;;;25.80;1.00;;;;;;5138315;27;20458;-54
2023/07/10 01:43:19;;;;;;;1.30;0.90;;;25.80;1.00;;;;;;5138658;27;20864;-57
2023/07/10 01:45:48;;;;;;;1.65;1.00;;;25.70;1.00;;;;;;5138952;27;20734;-56
2023/07/10 01:48:17;;;;;;;1.33;1.00;;;25.70;1.00;;;;;;5138130;27;20722;-57
2023/07/10 01:50:45;;;;;;;1.90;1.10;;;25.60;1.00;;;;;;5138092;27;20752;-55
2023/07/10 01:53:12;;;;;;;1.77;1.00;;;25.60;1.00;;;;;;5137558;27;20442;-56
2023/07/10 01:55:44;;;;;;;1.40;1.10;;;25.50;1.00;;;;;;5137590;27;20454;-56
2023/07/10 01:58:12;;;;;;;1.30;1.00;;;25.50;1.00;;;;;;5138178;27;20430;-57
2023/07/10 02:00:40;;;;;;;1.30;1.00;;;25.40;1.00;;;;;;5137855;27;20543;-56
2023/07/10 02:03:07;;;;;;;1.70;1.10;;;25.40;1.00;;;;;;5138092;27;20425;-57
2023/07/10 02:05:34;;;;;;;1.90;1.00;;;25.50;1.00;;;;;;5138690;27;20433;-55
2023/07/10 02:08:01;;;;;;;1.73;1.10;;;25.50;1.00;;;;;;5137934;27;20423;-57
2023/07/10 02:10:28;;;;;;;1.50;1.10;;;25.50;1.00;;;;;;5137801;27;20499;-56
2023/07/10 02:12:57;;;;;;;1.40;1.10;;;25.50;1.00;;;;;;5137872;27;20848;-56
2023/07/10 02:15:24;;;;;;;2.40;1.00;;;25.50;1.00;;;;;;5138031;27;20429;-55
2023/07/10 02:17:52;;;;;;;2.90;1.10;;;25.60;1.00;;;;;;5138104;27;20833;-56
2023/07/10 02:20:19;;;;;;;1.25;1.00;;;25.70;1.00;;;;;;5137701;27;20452;-56
2023/07/10 02:22:46;;;;;;;1.85;1.20;;;25.70;1.00;;;;;;5137668;27;20407;-56
2023/07/10 02:25:13;;;;;;;2.10;1.00;;;25.70;1.00;;;;;;5137827;27;20496;-57
2023/07/10 02:27:40;;;;;;;2.30;1.20;;;25.70;1.00;;;;;;5138260;27;20423;-57
2023/07/10 02:30:10;;;;;;;1.80;1.10;;;25.70;1.00;;;;;;5137480;27;20434;-57
2023/07/10 02:32:37;;;;;;;1.50;1.08;;;25.70;1.00;;;;;;5136747;27;20792;-55
2023/07/10 02:35:04;;;;;;;2.60;1.38;;;25.70;1.00;;;;;;5137162;27;20474;-56
2023/07/10 02:37:31;;;;;;;1.45;1.20;;;25.70;1.00;;;;;;5137152;27;20423;-56
2023/07/10 02:39:58;;;;;;;2.40;1.10;;;25.70;1.00;;;;;;5137288;27;20538;-57
2023/07/10 02:42:26;;;;;;;2.60;1.10;;;25.60;1.00;;;;;;5136924;27;20419;-57
2023/07/10 02:44:53;;;;;;;2.00;1.00;;;25.60;1.00;;;;;;5137474;27;20418;-56
2023/07/10 02:47:21;;;;;;;2.13;1.10;;;25.70;1.00;;;;;;5137293;27;20430;-57
2023/07/10 02:49:48;;;;;;;1.80;1.20;;;25.80;1.00;;;;;;5136848;27;20505;-54
2023/07/10 02:52:15;;;;;;;2.28;1.00;;;25.90;1.00;;;;;;5136816;27;20866;-57
2023/07/10 02:54:42;;;;;;;1.20;1.00;;;25.90;1.00;;;;;;5136974;27;20426;-58
2023/07/10 02:57:09;;;;;;;2.10;1.00;;;25.80;1.00;;;;;;5136574;27;20754;-54
2023/07/10 02:59:36;;;;;;;1.70;0.90;;;25.90;1.00;;;;;;5136546;27;20422;-57
2023/07/10 03:02:03;;;;;;;2.10;0.90;;;25.90;1.00;;;;;;5136550;27;20860;-55
2023/07/10 03:04:32;;;;;;;1.70;1.00;;;25.90;1.00;;;;;;5136249;27;20415;-57
2023/07/10 03:07:01;;;;;;;1.92;1.08;;;25.90;1.00;;;;;;5136337;27;20422;-58
2023/07/10 03:09:28;;;;;;;3.70;1.00;;;25.90;1.00;;;;;;5137069;27;20442;-57
2023/07/10 03:11:55;;;;;;;1.70;1.10;;;25.90;1.00;;;;;;5137119;27;20426;-57
2023/07/10 03:14:22;;;;;;;1.80;1.20;;;25.80;1.00;;;;;;5136497;27;20730;-56
2023/07/10 03:16:49;;;;;;;1.50;1.00;;;25.70;1.00;;;;;;5136359;27;20422;-58
2023/07/10 03:19:16;;;;;;;1.70;1.10;;;25.50;1.00;;;;;;5136869;27;20418;-57
2023/07/10 03:21:44;;;;;;;2.50;1.10;;;25.50;1.00;;;;;;5134743;27;20422;-57
2023/07/10 03:24:11;;;;;;;2.20;1.13;;;25.40;1.00;;;;;;5135426;27;20586;-56
2023/07/10 03:26:38;;;;;;;2.17;1.10;;;25.30;1.00;;;;;;5135415;27;20433;-55
2023/07/10 03:29:10;;;;;;;1.38;1.10;;;25.40;1.00;;;;;;5136205;27;20818;-55
2023/07/10 03:31:37;;;;;;;1.30;1.00;;;25.40;1.00;;;;;;5135799;27;20417;-58
2023/07/10 03:34:05;;;;;;;2.63;1.00;;;25.50;1.00;;;;;;5136190;27;20418;-57
2023/07/10 03:36:33;;;;;;;3.35;1.20;;;25.50;1.00;;;;;;5135212;27;20418;-56
2023/07/10 03:39:01;;;;;;;2.35;1.20;;;25.60;1.00;;;;;;5136428;27;20833;-55
2023/07/10 03:41:28;;;;;;;2.10;1.10;;;25.60;1.00;;;;;;5136290;27;20430;-55
2023/07/10 03:43:55;;;;;;;2.10;1.13;;;25.60;1.00;;;;;;5135555;27;20775;-55
2023/07/10 03:46:23;;;;;;;2.40;1.00;;;25.70;1.00;;;;;;5135404;27;20424;-56
2023/07/10 03:48:51;;;;;;;1.50;1.10;;;25.70;1.00;;;;;;5136019;27;20426;-56
2023/07/10 03:51:19;;;;;;;1.95;1.00;;;25.70;1.00;;;;;;5136349;27;20423;-56
2023/07/10 03:53:46;;;;;;;2.60;1.13;;;25.70;1.00;;;;;;5136032;27;20521;-57
2023/07/10 03:56:15;;;;;;;1.70;1.05;;;25.70;1.00;;;;;;5134313;27;20437;-57
2023/07/10 03:58:45;;;;;;;2.05;1.00;;;25.80;1.00;;;;;;5135536;27;20415;-57
2023/07/10 04:01:12;;;;;;;3.13;1.00;;;25.80;1.00;;;;;;5134691;27;20768;-56
2023/07/10 04:03:40;;;;;;;2.67;1.10;;;25.80;1.00;;;;;;5136312;27;20691;-56
2023/07/10 04:06:09;;;;;;;1.95;1.00;;;25.80;1.00;;;;;;5135307;27;20772;-56
2023/07/10 04:08:38;;;;;;;3.30;1.40;;;25.90;1.00;;;;;;5135477;27;20423;-54
2023/07/10 04:11:11;;;;;;;1.70;0.90;;;25.90;1.00;;;;;;5134088;27;20422;-52
2023/07/10 04:13:40;;;;;;;2.28;1.00;;;25.90;1.00;;;;;;5134660;28;20518;-55
2023/07/10 04:16:12;;;;;;;1.30;1.00;;;25.90;1.00;;;;;;5134720;28;20470;-52
2023/07/10 04:18:41;;;;;;;2.00;1.00;;;25.90;1.00;;;;;;5135303;28;20517;-55
2023/07/10 04:21:11;;;;;;;2.47;1.00;;;26.00;1.00;;;;;;5134216;28;20427;-52
2023/07/10 04:23:38;;;;;;;1.73;0.98;;;26.00;1.00;;;;;;5135002;28;20426;-55
2023/07/10 04:26:06;;;;;;;1.60;0.90;;;26.20;1.00;;;;;;5135407;28;20719;-53
2023/07/10 04:28:33;;;;;;;2.50;1.10;;;26.10;1.00;;;;;;5135745;28;20415;-54
2023/07/10 04:31:01;;;;;;;1.90;1.00;;;26.10;1.00;;;;;;5134809;28;20430;-54
2023/07/10 04:33:28;;;;;;;1.60;1.00;;;26.00;1.00;;;;;;5134169;28;20897;-55
2023/07/10 04:35:58;;;;;;;1.40;0.90;;;25.90;1.00;;;;;;5133057;27;20426;-54
2023/07/10 04:38:28;;;;;;;1.85;1.08;;;25.80;1.00;;;;;;5134280;28;20429;-54
2023/07/10 04:40:56;;;;;;;2.28;1.10;;;25.70;1.00;;;;;;5132649;28;20496;-53
2023/07/10 04:43:24;;;;;;;1.60;1.02;;;25.70;1.00;;;;;;5131464;28;20696;-53
2023/07/10 04:45:54;;;;;;;2.17;1.20;;;25.80;1.00;;;;;;5130558;28;20428;-53
2023/07/10 04:48:24;;;;;;;2.45;1.10;;;25.70;1.00;;;;;;5131098;27;20426;-53
2023/07/10 04:50:52;;;;;;;1.33;1.00;;;25.70;1.00;;;;;;5131054;28;20752;-54
2023/07/10 04:53:20;;;;;;;1.50;1.20;;;25.70;1.00;;;;;;5130496;28;20850;-51
2023/07/10 04:55:49;;;;;;;2.10;1.10;;;25.70;1.00;;;;;;5132112;27;20421;-53
2023/07/10 04:58:17;;;;;;;1.58;1.10;;;25.70;1.00;;;;;;5133866;28;20422;-53
2023/07/10 05:00:44;;;;;;;3.45;1.20;;;25.70;1.00;;;;;;5134155;27;20434;-52
2023/07/10 05:03:11;;;;;;;2.10;1.40;;;25.80;1.00;;;;;;5138620;27;20438;-55
2023/07/10 05:05:39;;;;;;;2.60;1.30;;;25.90;1.00;;;;;;5138399;27;20429;-54
2023/07/10 05:08:07;;;;;;;1.65;1.10;;;25.70;1.00;;;;;;5138358;27;20422;-54
2023/07/10 05:10:34;;;;;;;2.40;1.10;;;25.70;1.00;;;;;;5136480;27;20495;-53
2023/07/10 05:13:01;;;;;;;2.72;1.10;;;25.60;1.00;;;;;;5136886;27;20731;-51
2023/07/10 05:15:28;;;;;;;2.92;1.20;;;25.70;1.00;;;;;;5138250;27;20434;-55
2023/07/10 05:17:55;;;;;;;3.30;1.20;;;25.70;1.00;;;;;;5136722;27;20723;-54
2023/07/10 05:20:22;;;;;;;2.35;1.20;;;25.60;1.00;;;;;;5136145;27;20432;-53
2023/07/10 05:22:50;;;;;;;1.67;1.10;;;25.40;1.00;;;;;;5135335;27;20410;-54
2023/07/10 05:25:19;;;;;;;3.30;1.30;;;25.40;1.00;;;;;;5136319;27;20411;-55
2023/07/10 05:27:46;;;;;;;2.42;1.10;;;25.40;1.00;;;;;;5138230;27;20763;-55
2023/07/10 05:30:13;;;;;;;2.00;1.20;;;25.50;1.00;;;;;;5137129;27;20435;-54
2023/07/10 05:32:40;;;;;;;1.70;1.10;;;25.60;1.00;;;;;;5137864;27;20876;-54
2023/07/10 05:35:08;;;;;;;1.75;1.20;;;25.70;1.00;;;;;;5135557;27;20498;-54
2023/07/10 05:37:35;;;;;;;3.72;1.10;;;25.80;1.00;;;;;;5133778;27;20433;-49
2023/07/10 05:40:04;;;;;;;1.75;1.30;;;25.90;1.00;;;;;;5136319;27;20988;-55
2023/07/10 05:42:32;;;;;;;2.20;1.10;;;25.90;1.00;;;;;;5130996;27;20434;-51
2023/07/10 05:44:59;;;;;;;1.88;1.20;;;26.10;1.00;;;;;;5130072;27;20970;-51
2023/07/10 05:47:26;;;;;;;1.60;1.10;;;26.20;1.00;;;;;;5118355;27;20423;-51
2023/07/10 05:49:53;;;;;;;2.00;1.20;;;26.20;1.00;;;;;;5118312;27;20416;-55
2023/07/10 05:52:20;;;;;;;9.13;8.13;;;26.20;1.00;;;;;;5121469;27;20418;-54
2023/07/10 05:54:47;;;;;;;3.20;1.50;;;26.10;1.00;;;;;;5131401;27;20431;-54
2023/07/10 05:57:15;;;;;;;1.70;1.20;;;26.10;32.40;;;;;;5132361;27;20434;-52
2023/07/10 05:59:42;;;;;;;2.40;1.10;;;26.00;98.40;;;;;;5132078;27;20433;-52
2023/07/10 06:02:15;;;;;;;1.92;1.10;;;25.90;46.40;;;;;;5129016;27;20692;-53
2023/07/10 06:04:42;;;;;;;2.15;1.40;;;25.90;99.90;;;;;;5130221;27;20412;-54
2023/07/10 06:07:09;;;;;;;1.80;1.00;;;26.00;99.90;;;;;;5119539;27;20719;-48
2023/07/10 06:09:36;;;;;;;2.70;1.20;;;26.00;37.20;;;;;;5132828;27;20434;-53
2023/07/10 06:12:05;;;;;;;2.40;1.10;;;26.10;1.00;;;;;;5123396;27;20428;-49
2023/07/10 06:14:33;;;;;;;1.58;1.20;;;26.20;1.00;;;;;;5124412;27;20433;-50
2023/07/10 06:17:02;;;;;;;1.60;1.20;;;26.30;1.00;;;;;;5122351;27;20423;-54
2023/07/10 06:19:29;;;;;;;1.60;1.10;;;26.40;1.00;;;;;;5128925;27;20422;-53
2023/07/10 06:22:06;;;;;;;2.70;1.20;;;26.60;1.00;;;;;;5128330;27;20492;-52
2023/07/10 06:24:33;;;;;;;2.22;1.30;;;26.80;1.00;;;;;;5126839;27;20919;-51
2023/07/10 06:27:00;;;;;;;1.50;1.10;;;27.00;1.00;;;;;;5132103;27;20434;-54
2023/07/10 06:29:27;;;;;;;1.50;1.10;;;27.10;1.00;;;;;;5117907;27;20428;-56
2023/07/10 06:31:55;;;;;;;2.60;1.10;;;27.30;1.00;;;;;;5124281;27;20432;-54
2023/07/10 06:34:23;;;;;;;1.40;1.10;;;27.30;1.00;;;;;;5117297;27;20418;-53
2023/07/10 06:36:50;;;;;;;1.40;1.10;;;27.40;1.00;;;;;;5121854;27;20434;-52
2023/07/10 06:39:18;;;;;;;2.40;1.10;;;27.50;1.00;;;;;;5118399;27;20424;-48
2023/07/10 06:41:45;;;;;;;2.60;1.15;;;27.60;1.00;;;;;;5128027;27;20422;-52
2023/07/10 06:44:12;;;;;;;1.98;1.10;;;27.60;1.00;;;;;;5115205;27;20865;-50
2023/07/10 06:46:39;;;;;;;2.35;1.10;;;27.60;1.00;;;;;;5118327;27;20420;-52
2023/07/10 06:49:08;;;;;;;1.60;1.20;;;27.70;1.00;;;;;;5126548;27;20462;-50
2023/07/10 06:51:36;;;;;;;1.55;0.90;;;27.70;1.00;;;;;;5129546;27;20431;-48
2023/07/10 06:54:04;;;;;;;1.73;1.10;;;27.80;1.00;;;;;;5111169;27;21123;-54
2023/07/10 06:56:31;;;;;;;5.13;4.63;;;28.00;1.00;;;;;;5110978;27;20440;-51
2023/07/10 06:58:58;;;;;;;2.67;1.10;;;28.20;1.00;;;;;;5121528;27;20411;-55
2023/07/10 07:01:25;;;;;;;1.30;0.90;;;28.30;1.00;;;;;;5131220;27;20418;-54
2023/07/10 07:03:52;;;;;;;1.92;1.00;;;28.20;1.00;;;;;;5125560;27;20424;-56
2023/07/10 07:06:21;;;;;;;1.35;1.00;;;28.30;1.00;;;;;;5125135;27;20424;-52
2023/07/10 07:08:49;;;;;;;1.30;0.90;;;28.30;1.00;;;;;;5115616;27;20444;-53
2023/07/10 07:11:16;;;;;;;1.63;1.00;;;28.40;1.00;;;;;;5117325;27;20428;-50
2023/07/10 07:13:43;;;;;;;1.85;1.00;;;28.60;1.00;;;;;;5127903;27;20450;-54
2023/07/10 07:16:11;;;;;;;1.80;0.90;;;28.60;1.00;;;;;;5121252;27;20438;-55
2023/07/10 07:18:38;;;;;;;2.10;1.00;;;28.60;1.00;;;;;;5123719;27;20433;-53
2023/07/10 07:21:05;;;;;;;2.90;0.90;;;28.70;1.00;;;;;;5127887;27;20441;-53
2023/07/10 07:23:34;;;;;;;1.40;1.10;;;28.80;1.00;;;;;;5131900;27;20422;-55
2023/07/10 07:26:01;;;;;;;2.80;2.40;;;28.90;1.00;;;;;;5123362;27;20439;-49
2023/07/10 07:28:28;;;;;;;1.83;1.00;;;28.70;1.00;;;;;;5121881;27;20437;-54
2023/07/10 07:31:02;;;;;;;1.80;1.10;;;28.70;1.00;;;;;;5126101;27;20434;-55
2023/07/10 07:33:29;;;;;;;2.28;1.10;;;28.50;1.00;;;;;;5132567;27;20426;-53
2023/07/10 07:35:59;;;;;;;1.70;1.20;;;28.40;1.00;;;;;;5131490;27;20428;-54
2023/07/10 07:38:26;;;;;;;1.37;1.00;;;28.50;1.00;;;;;;5118049;27;20429;-54
2023/07/10 07:40:57;;;;;;;2.20;0.90;;;28.60;1.00;;;;;;5134296;27;20403;-52
2023/07/10 07:43:24;;;;;;;2.40;0.90;;;28.60;1.00;;;;;;5121057;27;20533;-56
2023/07/10 07:45:53;;;;;;;2.00;0.80;;;28.70;1.00;;;;;;5114043;27;20465;-52
2023/07/10 07:48:21;;;;;;;2.40;0.80;;;28.60;1.00;;;;;;5118338;27;20683;-52
2023/07/10 07:50:59;;;;;;;1.33;0.80;;;28.70;1.00;;;;;;5123741;27;20429;-55
2023/07/10 07:53:26;;;;;;;1.80;0.90;;;28.90;1.00;;;;;;5120310;27;20430;-53
2023/07/10 07:55:55;;;;;;;1.10;0.90;;;28.80;1.00;;;;;;5114442;27;20432;-53
2023/07/10 07:58:22;;;;;;;2.40;0.95;;;28.90;1.00;;;;;;5119735;27;20426;-55
2023/07/10 08:00:50;;;;;;;2.00;0.90;;;29.00;1.00;;;;;;5128954;27;20513;-53
2023/07/10 08:03:17;;;;;;;1.40;0.90;;;29.10;1.00;;;;;;5129386;27;20427;-55
2023/07/10 08:05:45;;;;;;;1.40;0.90;;;29.10;1.00;;;;;;5125697;27;20860;-50
2023/07/10 08:08:12;;;;;;;1.60;0.90;;;29.20;1.00;;;;;;5128565;27;20435;-55
2023/07/10 08:10:42;;;;;;;1.70;0.88;;;29.20;1.00;;;;;;5125972;27;20715;-49
2023/07/10 08:13:12;;;;;;;1.20;0.90;;;29.30;1.00;;;;;;5129287;27;20424;-53
2023/07/10 08:15:39;;;;;;;2.30;0.90;;;29.50;1.00;;;;;;5130910;27;20490;-52
2023/07/10 08:18:06;;;;;;;1.60;0.95;;;29.40;1.00;;;;;;5126509;28;20437;-55
2023/07/10 08:20:34;;;;;;;1.40;0.90;;;29.50;1.00;;;;;;5122844;28;20427;-56
2023/07/10 08:23:02;;;;;;;1.95;0.90;;;29.50;1.00;;;;;;5124794;28;20419;-54
2023/07/10 08:25:29;;;;;;;1.42;1.00;;;29.40;1.00;;;;;;5115018;28;20423;-56
2023/07/10 08:27:58;;;;;;;1.40;0.90;;;29.30;1.00;;;;;;5129500;28;20450;-55
2023/07/10 08:30:28;;;;;;;1.90;1.10;;;29.10;1.00;;;;;;5130989;28;20541;-53
2023/07/10 08:32:55;;;;;;;1.70;1.20;;;29.00;1.00;;;;;;5118039;28;20515;-55
2023/07/10 08:35:22;;;;;;;1.23;0.90;;;29.00;1.00;;;;;;5125001;27;20450;-57
2023/07/10 08:37:50;;;;;;;2.90;1.00;;;29.10;1.00;;;;;;5118096;27;20514;-54
2023/07/10 08:40:22;;;;;;;1.40;0.90;;;29.10;1.00;;;;;;5128159;27;20755;-49
2023/07/10 08:42:50;;;;;;;1.88;1.00;;;29.00;1.00;;;;;;5124403;27;20421;-56
2023/07/10 08:45:29;;;;;;;2.60;1.00;;;29.30;1.00;;;;;;5118554;27;20442;-55
2023/07/10 08:48:06;;;;;;;1.30;0.90;;;29.60;1.00;;;;;;5116093;27;20431;-56
2023/07/10 08:50:34;;;;;;;2.50;0.90;;;29.70;1.00;;;;;;5123849;27;20424;-55
2023/07/10 08:53:07;;;;;;;1.30;0.90;;;29.80;1.00;;;;;;5125495;27;20402;-57
2023/07/10 08:55:44;;;;;;;2.08;1.00;;;29.70;1.00;;;;;;5131752;27;20430;-55
2023/07/10 08:58:19;;;;;;;2.10;0.90;;;29.70;1.00;;;;;;5119725;27;20713;-55
2023/07/10 09:00:49;;;;;;;1.27;1.00;;;29.80;1.00;;;;;;5130492;27;20432;-56
2023/07/10 09:03:35;;;;;;;2.40;1.00;;;29.90;1.00;;;;;;5130676;27;20712;-57
2023/07/10 09:06:04;;;;;;;1.80;0.95;;;30.00;1.00;;;;;;5119776;27;20786;-55
2023/07/10 09:08:33;;;;;;;1.88;1.00;;;30.00;1.00;;;;;;5121599;27;20458;-57
2023/07/10 09:11:03;;;;;;;1.60;1.00;;;30.00;1.00;;;;;;5132619;27;20509;-55
2023/07/10 09:13:39;;;;;;;1.95;1.00;;;29.60;1.00;;;;;;5135082;27;20418;-57
2023/07/10 09:16:14;;;;;;;1.30;1.00;;;29.50;1.00;;;;;;5121514;27;20449;-57
2023/07/10 09:18:49;;;;;;;1.93;1.00;;;29.40;1.00;;;;;;5130616;27;20422;-57
2023/07/10 09:21:18;;;;;;;1.50;1.00;;;29.40;1.00;;;;;;5136418;27;20433;-57
2023/07/10 09:23:46;;;;;;;1.90;1.10;;;29.50;1.00;;;;;;5131958;27;20437;-56
2023/07/10 09:26:15;;;;;;;2.60;1.70;;;29.70;1.00;;;;;;5130030;27;20419;-54
2023/07/10 09:28:46;;;;;;;1.90;1.00;;;29.90;1.00;;;;;;5126235;27;20432;-55
2023/07/10 09:31:26;;;;;;;2.40;1.10;;;30.00;1.00;;;;;;5127788;27;20424;-58
2023/07/10 09:34:01;;;;;;;1.50;1.10;;;30.10;1.00;;;;;;5131652;27;20439;-56
2023/07/10 09:36:28;;;;;;;1.50;1.10;;;30.10;1.00;;;;;;5121818;27;20764;-58
2023/07/10 09:38:57;;;;;;;1.33;1.00;;;29.90;1.00;;;;;;5135049;27;20430;-58
2023/07/10 09:41:26;;;;;;;1.70;1.10;;;29.40;1.00;;;;;;5121903;27;20430;-57
2023/07/10 09:43:56;;;;;;;1.83;1.10;;;29.30;1.00;;;;;;5118691;27;20434;-58
2023/07/10 09:46:24;;;;;;;1.52;1.08;;;29.40;1.00;;;;;;5122072;27;20437;-56
2023/07/10 09:48:55;;;;;;;3.00;1.10;;;29.70;1.00;;;;;;5121318;27;20785;-57
2023/07/10 09:51:23;;;;;;;1.60;1.10;;;30.10;1.00;;;;;;5124968;27;20442;-56
2023/07/10 09:53:53;;;;;;;3.30;1.17;;;30.30;1.00;;;;;;5125439;27;21014;-58
2023/07/10 09:56:23;;;;;;;1.42;1.10;;;30.20;1.00;;;;;;5122571;27;20414;-57
2023/07/10 09:58:54;;;;;;;1.45;1.05;;;30.20;1.00;;;;;;5122749;27;20435;-57
2023/07/10 10:01:24;;;;;;;1.40;1.10;;;30.10;1.00;;;;;;5132536;27;20431;-56
2023/07/10 10:03:54;;;;;;;1.40;1.10;;;29.70;1.00;;;;;;5130643;27;20495;-57
2023/07/10 10:06:25;;;;;;;1.60;1.00;;;29.90;1.00;;;;;;5125675;27;21019;-57
2023/07/10 10:08:54;;;;;;;1.60;1.10;;;30.00;1.00;;;;;;5122802;27;20494;-56
2023/07/10 10:11:34;;;;;;;1.73;1.10;;;30.20;1.00;;;;;;5126634;27;20424;-56
2023/07/10 10:14:06;;;;;;;2.30;1.10;;;30.40;1.00;;;;;;5116799;27;20434;-56
2023/07/10 10:16:41;;;;;;;2.60;1.30;;;30.40;1.00;;;;;;5131632;27;20442;-53
2023/07/10 10:19:16;;;;;;;4.20;1.30;;;30.60;1.00;;;;;;5132889;27;20484;-55
2023/07/10 10:21:44;;;;;;;2.55;1.20;;;30.80;1.00;;;;;;5118768;27;20431;-58
2023/07/10 10:24:12;;;;;;;1.50;1.30;;;30.70;1.00;;;;;;5129814;27;20430;-58
2023/07/10 10:27:05;;;;;;;1.70;1.00;;;30.80;1.00;;;;;;5129616;27;20826;-58
2023/07/10 10:29:58;;;;;;;1.70;1.00;;;31.30;1.00;;;;;;5128002;27;20817;-58
2023/07/10 10:32:33;;;;;;;1.38;1.05;;;31.60;1.00;;;;;;5117667;27;20493;-58
2023/07/10 10:35:10;;;;;;;2.20;1.10;;;31.80;1.00;;;;;;5125723;27;20434;-56
2023/07/10 10:37:53;;;;;;;1.50;1.23;;;31.80;1.00;;;;;;5121793;27;20488;-58
2023/07/10 10:40:27;;;;;;;1.37;0.93;;;32.10;1.00;;;;;;5130019;27;20425;-58
2023/07/10 10:43:03;;;;;;;1.70;1.10;;;32.10;1.00;;;;;;5133844;27;20430;-58
2023/07/10 10:45:35;;;;;;;1.58;1.10;;;32.30;1.00;;;;;;5132744;27;20426;-59
2023/07/10 10:48:14;;;;;;;2.58;1.30;;;32.40;1.00;;;;;;5133808;27;20410;-59
2023/07/10 10:50:52;;;;;;;2.50;1.20;;;32.60;1.00;;;;;;5134348;27;20849;-59
2023/07/10 10:53:35;;;;;;;1.70;1.20;;;32.70;1.00;;;;;;5133503;27;20910;-58
2023/07/10 10:56:15;;;;;;;1.30;1.00;;;32.80;1.00;;;;;;5132417;27;20423;-59
2023/07/10 10:58:57;;;;;;;1.80;1.20;;;32.60;1.00;;;;;;5131125;27;20429;-58
2023/07/10 11:01:35;;;;;;;1.60;1.20;;;32.90;1.00;;;;;;5132648;27;20483;-58
2023/07/10 11:04:13;;;;;;;1.23;1.08;;;33.40;1.00;;;;;;5132717;27;20430;-58
2023/07/10 11:06:47;;;;;;;1.40;1.10;;;33.20;1.00;;;;;;5131691;27;20487;-58
2023/07/10 11:09:20;;;;;;;1.70;1.20;;;33.60;1.00;;;;;;5133022;27;20762;-58
2023/07/10 11:11:48;;;;;;;1.60;1.10;;;33.90;1.00;;;;;;5132614;27;20614;-59
2023/07/10 11:14:15;;;;;;;1.90;1.20;;;34.00;1.00;;;;;;5132403;27;20415;-59
2023/07/10 11:16:42;;;;;;;1.58;1.10;;;34.00;1.00;;;;;;5131050;27;20427;-58
2023/07/10 11:19:16;;;;;;;2.30;1.20;;;34.10;1.00;;;;;;5131724;27;20772;-58
2023/07/10 11:21:43;;;;;;;1.60;1.10;;;33.80;1.00;;;;;;5133520;27;20509;-59
2023/07/10 11:24:27;;;;;;;2.20;1.10;;;33.70;1.00;;;;;;5132571;27;20448;-57
2023/07/10 11:27:00;;;;;;;2.20;1.10;;;33.80;1.00;;;;;;5132317;27;20497;-57
2023/07/10 11:29:35;;;;;;;1.50;1.20;;;33.30;1.00;;;;;;5133306;27;20415;-58
2023/07/10 11:32:13;;;;;;;1.65;1.13;;;33.30;1.00;;;;;;5131479;27;20422;-58
2023/07/10 11:34:50;;;;;;;1.65;1.10;;;33.50;1.00;;;;;;5132463;27;20499;-58
2023/07/10 11:37:40;;;;;;;1.87;1.10;;;33.70;1.00;;;;;;5130552;27;20427;-57
2023/07/10 11:40:44;;;;;;;1.80;1.10;;;33.70;1.00;;;;;;5131563;27;20533;-58
2023/07/10 11:43:55;;;;;;;3.13;1.00;;;33.90;1.00;;;;;;5122058;27;20445;-58
2023/07/10 11:46:29;;;;;;;1.40;1.10;;;33.70;1.00;;;;;;5128032;27;20445;-58
2023/07/10 11:49:24;;;;;;;1.33;1.00;;;33.90;1.00;;;;;;5125943;27;20602;-58
2023/07/10 11:52:27;;;;;;;2.08;1.00;;;33.50;1.00;;;;;;5132676;27;20430;-58
2023/07/10 11:55:25;;;;;;;1.20;0.90;;;33.60;1.00;;;;;;5125937;27;20430;-59
2023/07/10 11:58:22;;;;;;;1.10;0.93;;;33.90;1.00;;;;;;5131574;27;20528;-59
2023/07/10 12:00:50;;;;;;;1.70;1.00;;;33.70;1.00;;;;;;5128985;27;20486;-58
2023/07/10 12:03:17;;;;;;;3.03;1.00;;;33.70;1.00;;;;;;5128423;27;20925;-58
2023/07/10 12:05:46;;;;;;;1.83;1.00;;;33.50;1.00;;;;;;5129571;27;20407;-59
2023/07/10 12:08:15;;;;;;;1.20;1.10;;;33.50;1.00;;;;;;5131435;27;20460;-59
2023/07/10 12:10:45;;;;;;;2.00;1.40;;;33.70;1.00;;;;;;5130679;27;20427;-59
2023/07/10 12:13:20;;;;;;;1.60;1.00;;;34.40;1.00;;;;;;5129719;27;20521;-58
2023/07/10 12:15:48;;;;;;;1.27;0.90;;;34.20;1.00;;;;;;5130056;27;20429;-58
2023/07/10 12:18:17;;;;;;;1.40;0.90;;;34.20;1.00;;;;;;5131087;27;20479;-59
2023/07/10 12:20:44;;;;;;;1.40;0.85;;;33.90;1.00;;;;;;5131632;28;20789;-58
2023/07/10 12:23:13;;;;;;;1.10;0.90;;;34.30;1.00;;;;;;5131999;28;20425;-58
2023/07/10 12:25:48;;;;;;;1.80;1.00;;;34.40;1.00;;;;;;5131551;28;20763;-58
2023/07/10 12:28:19;;;;;;;1.10;0.90;;;34.50;1.00;;;;;;5131314;28;20430;-58
2023/07/10 12:30:49;;;;;;;1.70;0.95;;;34.20;1.00;;;;;;5131004;28;20735;-58
2023/07/10 12:33:34;;;;;;;1.10;0.90;;;34.30;1.00;;;;;;5132760;28;20517;-58
2023/07/10 12:36:18;;;;;;;1.50;1.00;;;34.80;1.00;;;;;;5133166;27;20846;-59
2023/07/10 12:38:46;;;;;;;1.45;0.90;;;35.40;1.00;;;;;;5132611;28;20465;-59
2023/07/10 12:41:13;;;;;;;1.10;0.90;;;35.60;1.00;;;;;;5128612;28;20494;-59
2023/07/10 12:43:47;;;;;;;1.30;0.90;;;35.70;1.00;;;;;;5127733;28;20434;-59
2023/07/10 12:46:17;;;;;;;1.33;0.90;;;36.10;1.00;;;;;;5130299;28;20418;-59
2023/07/10 12:48:45;;;;;;;2.30;0.90;;;36.00;1.00;;;;;;5131382;28;20426;-58
2023/07/10 12:51:19;;;;;;;1.50;0.90;;;35.50;1.00;;;;;;5130626;28;20426;-59
2023/07/10 12:53:46;;;;;;;1.65;0.90;;;35.80;1.00;;;;;;5131385;28;20415;-59
2023/07/10 12:56:26;;;;;;;1.10;0.80;;;35.30;1.00;;;;;;5131582;28;20522;-59
2023/07/10 12:58:57;;;;;;;1.10;1.00;;;35.30;1.00;;;;;;5130993;28;20422;-59
2023/07/10 13:01:27;;;;;;;1.35;0.82;;;35.80;1.00;;;;;;5130206;28;20514;-59
2023/07/10 13:04:13;;;;;;;1.50;0.90;;;36.00;1.00;;;;;;5130087;28;20802;-59
2023/07/10 13:06:41;;;;;;;1.45;0.90;;;36.10;1.00;;;;;;5132863;28;20440;-59
2023/07/10 13:09:08;;;;;;;1.88;1.05;;;35.90;1.00;;;;;;5130446;28;20450;-59
2023/07/10 13:11:34;;;;;;;1.50;1.20;;;36.10;1.00;;;;;;5131451;28;20460;-59
2023/07/10 13:14:07;;;;;;;1.70;1.10;;;36.20;1.00;;;;;;5130826;28;20803;-59